Time;durP1;ratioP1;P1;durP2;ratioP2;P2;SDS_P1;SDS_P2;PMS_P1;PMS_P2;Temp;Humidity;BMP_temperature;BMP_pressure;BME280_temperature;BME280_humidity;BME280_pressure;Samples;Min_cycle;Max_cycle;Signal;HPM_P1;HPM_P2
2021/10/20 00:02:18;;;;;;;6.18;2.30;;;20.60;56.00;;;;;;4972648;28;20390;-83
2021/10/20 00:04:44;;;;;;;6.88;2.35;;;20.60;56.00;;;;;;4962608;28;20035;-82
2021/10/20 00:07:10;;;;;;;5.82;2.20;;;20.60;56.00;;;;;;4967681;28;20094;-82
2021/10/20 00:09:35;;;;;;;6.25;2.03;;;20.60;56.00;;;;;;4966981;28;20044;-83
2021/10/20 00:12:02;;;;;;;5.82;2.40;;;20.60;56.00;;;;;;4969632;28;20664;-83
2021/10/20 00:14:29;;;;;;;6.60;2.00;;;20.60;56.00;;;;;;4970374;28;20090;-82
2021/10/20 00:16:55;;;;;;;5.70;2.40;;;20.60;55.90;;;;;;4971633;28;20039;-82
2021/10/20 00:19:21;;;;;;;7.03;2.35;;;20.60;55.90;;;;;;4956613;28;20051;-82
2021/10/20 00:21:47;;;;;;;6.72;2.35;;;20.60;55.90;;;;;;4964496;28;20031;-82
2021/10/20 00:24:12;;;;;;;7.28;2.35;;;20.60;55.90;;;;;;4968528;28;20035;-83
2021/10/20 00:26:38;;;;;;;6.80;2.20;;;20.60;55.90;;;;;;4967015;28;20039;-82
2021/10/20 00:29:04;;;;;;;7.82;2.35;;;20.60;55.80;;;;;;4968260;28;20035;-82
2021/10/20 00:31:30;;;;;;;5.53;2.22;;;20.60;55.80;;;;;;4963105;28;20513;-84
2021/10/20 00:33:56;;;;;;;8.63;2.22;;;20.60;56.50;;;;;;4968155;28;20027;-83
2021/10/20 00:36:22;;;;;;;5.38;2.20;;;20.60;55.80;;;;;;4961859;28;20031;-82
2021/10/20 00:38:48;;;;;;;7.15;2.50;;;20.60;55.80;;;;;;4965841;28;20037;-83
2021/10/20 00:41:13;;;;;;;5.50;2.15;;;20.60;55.80;;;;;;4963399;28;20046;-83
2021/10/20 00:43:40;;;;;;;5.45;2.17;;;20.60;55.80;;;;;;4970954;28;20050;-82
2021/10/20 00:46:06;;;;;;;6.15;2.40;;;20.60;55.70;;;;;;4967874;28;20486;-83
2021/10/20 00:48:32;;;;;;;5.55;2.20;;;20.50;55.60;;;;;;4966887;28;20042;-82
2021/10/20 00:50:58;;;;;;;6.00;2.20;;;20.60;55.70;;;;;;4970173;28;20058;-82
2021/10/20 00:53:24;;;;;;;6.32;2.30;;;20.60;55.80;;;;;;4964238;28;20104;-82
2021/10/20 00:55:50;;;;;;;4.95;2.17;;;20.60;55.80;;;;;;4965612;28;20042;-82
2021/10/20 00:58:18;;;;;;;6.30;2.28;;;20.60;55.70;;;;;;4963276;28;20039;-82
2021/10/20 01:00:43;;;;;;;7.63;2.40;;;20.60;55.80;;;;;;4966192;28;20766;-82
2021/10/20 01:03:09;;;;;;;7.43;2.40;;;20.60;55.70;;;;;;4970352;28;20051;-83
2021/10/20 01:05:35;;;;;;;5.13;2.20;;;20.50;55.50;;;;;;4967293;28;20058;-82
2021/10/20 01:08:00;;;;;;;5.63;2.15;;;20.50;55.50;;;;;;4962080;28;20039;-82
2021/10/20 01:10:26;;;;;;;5.18;2.05;;;20.60;55.70;;;;;;4960286;28;20406;-82
2021/10/20 01:12:53;;;;;;;6.28;2.10;;;20.50;55.50;;;;;;4966414;28;20121;-82
2021/10/20 01:15:25;;;;;;;5.68;2.00;;;20.60;55.60;;;;;;4959583;28;20042;-82
2021/10/20 01:17:52;;;;;;;6.28;2.30;;;20.60;55.60;;;;;;4970513;28;20413;-82
2021/10/20 01:20:26;;;;;;;5.45;2.28;;;20.60;55.60;;;;;;4951279;28;20143;-83
2021/10/20 01:22:52;;;;;;;5.60;2.38;;;20.50;55.40;;;;;;4961940;28;20093;-84
2021/10/20 01:25:18;;;;;;;5.55;2.42;;;20.50;55.40;;;;;;4979230;28;20035;-82
2021/10/20 01:27:44;;;;;;;5.80;2.38;;;20.50;55.40;;;;;;4970390;28;20039;-84
2021/10/20 01:30:10;;;;;;;6.85;2.40;;;20.50;55.40;;;;;;4965064;28;20046;-82
2021/10/20 01:32:36;;;;;;;5.60;2.50;;;20.50;55.40;;;;;;4959143;28;20054;-82
2021/10/20 01:35:03;;;;;;;5.22;2.20;;;20.50;55.30;;;;;;4961511;28;20082;-83
2021/10/20 01:37:30;;;;;;;5.07;2.13;;;20.50;55.40;;;;;;4961965;28;20074;-82
2021/10/20 01:39:57;;;;;;;8.65;2.40;;;20.50;55.30;;;;;;4959634;28;20106;-82
2021/10/20 01:42:24;;;;;;;6.97;2.22;;;20.50;55.30;;;;;;4958343;28;20166;-82
2021/10/20 01:44:50;;;;;;;4.90;2.03;;;20.50;55.20;;;;;;4962843;28;20485;-82
2021/10/20 01:47:16;;;;;;;5.63;2.35;;;20.60;55.40;;;;;;4957264;28;20069;-81
2021/10/20 01:49:42;;;;;;;6.18;2.53;;;20.50;55.30;;;;;;4959918;28;20078;-81
2021/10/20 01:52:07;;;;;;;5.82;2.42;;;20.50;55.20;;;;;;4940364;28;20115;-81
2021/10/20 01:54:33;;;;;;;4.82;2.08;;;20.50;55.20;;;;;;4958520;28;20035;-81
2021/10/20 01:56:59;;;;;;;5.47;2.40;;;20.50;55.20;;;;;;4956759;28;20043;-80
2021/10/20 01:59:24;;;;;;;5.38;2.40;;;20.50;55.20;;;;;;4956107;28;20046;-81
2021/10/20 02:01:50;;;;;;;6.03;2.10;;;20.50;55.10;;;;;;4958875;28;20143;-81
2021/10/20 02:04:16;;;;;;;5.95;2.50;;;20.50;55.10;;;;;;4960051;28;20043;-81
2021/10/20 02:06:43;;;;;;;5.68;2.20;;;20.50;55.10;;;;;;4960511;28;20600;-81
2021/10/20 02:09:10;;;;;;;5.85;2.30;;;20.50;55.10;;;;;;4971354;28;20486;-81
2021/10/20 02:11:36;;;;;;;5.50;2.13;;;20.50;55.10;;;;;;4957535;28;20557;-80
2021/10/20 02:14:06;;;;;;;5.88;2.45;;;20.50;55.00;;;;;;4958289;28;20046;-81
2021/10/20 02:16:31;;;;;;;5.07;2.20;;;20.50;55.00;;;;;;4957607;28;20046;-80
2021/10/20 02:18:57;;;;;;;5.20;2.28;;;20.50;55.00;;;;;;4957893;28;20054;-81
2021/10/20 02:21:24;;;;;;;6.13;2.50;;;20.50;55.00;;;;;;4941618;28;20047;-81
2021/10/20 02:23:50;;;;;;;5.15;2.25;;;20.50;55.00;;;;;;4960162;28;20125;-83
2021/10/20 02:26:16;;;;;;;4.90;2.10;;;20.50;55.00;;;;;;4942494;28;20130;-83
2021/10/20 02:28:41;;;;;;;8.70;2.25;;;20.50;55.00;;;;;;4947419;28;20041;-83
2021/10/20 02:31:07;;;;;;;4.68;2.00;;;20.50;55.00;;;;;;4967496;28;20041;-82
2021/10/20 02:33:33;;;;;;;5.72;2.20;;;20.50;55.00;;;;;;4966344;28;20039;-83
2021/10/20 02:35:58;;;;;;;5.10;2.20;;;20.60;55.10;;;;;;4955831;28;20075;-83
2021/10/20 02:38:24;;;;;;;5.40;2.45;;;20.50;54.90;;;;;;4946340;28;20448;-84
2021/10/20 02:40:50;;;;;;;6.90;2.33;;;20.50;54.90;;;;;;4963928;28;20082;-83
2021/10/20 02:43:16;;;;;;;6.32;2.38;;;20.50;54.90;;;;;;4959867;28;20646;-83
2021/10/20 02:45:42;;;;;;;5.95;2.38;;;20.50;54.90;;;;;;4970196;28;20094;-83
2021/10/20 02:48:08;;;;;;;6.00;2.35;;;20.50;54.90;;;;;;4979808;28;20116;-82
2021/10/20 02:50:34;;;;;;;5.43;2.25;;;20.50;54.90;;;;;;4969976;28;20596;-82
2021/10/20 02:53:00;;;;;;;5.10;2.20;;;20.50;54.80;;;;;;4963108;28;20042;-82
2021/10/20 02:55:26;;;;;;;5.97;2.67;;;20.50;54.80;;;;;;4966196;28;20401;-86
2021/10/20 02:57:52;;;;;;;4.90;2.03;;;20.50;54.80;;;;;;4957383;28;20129;-82
2021/10/20 03:00:18;;;;;;;4.97;2.20;;;20.50;54.80;;;;;;4967620;28;20526;-82
2021/10/20 03:02:43;;;;;;;5.30;2.20;;;20.50;54.70;;;;;;4974429;28;20042;-83
2021/10/20 03:05:09;;;;;;;6.00;2.10;;;20.50;54.70;;;;;;4968674;28;20038;-83
2021/10/20 03:07:36;;;;;;;5.35;2.25;;;20.50;55.40;;;;;;4969945;28;20093;-84
2021/10/20 03:10:03;;;;;;;5.22;2.15;;;20.50;54.80;;;;;;4977036;28;20100;-82
2021/10/20 03:12:28;;;;;;;5.70;2.30;;;20.50;54.70;;;;;;4970075;28;20077;-83
2021/10/20 03:14:54;;;;;;;6.38;2.42;;;20.50;54.70;;;;;;4955945;28;20055;-83
2021/10/20 03:17:23;;;;;;;5.72;2.45;;;20.50;54.70;;;;;;4968723;28;20043;-83
2021/10/20 03:19:48;;;;;;;5.57;2.15;;;20.50;54.70;;;;;;4970395;28;20143;-82
2021/10/20 03:22:14;;;;;;;5.20;2.15;;;20.50;54.60;;;;;;4962556;28;20049;-83
2021/10/20 03:24:40;;;;;;;6.18;2.45;;;20.50;54.60;;;;;;4968531;28;20682;-84
2021/10/20 03:27:05;;;;;;;4.88;2.00;;;20.40;54.40;;;;;;4963993;28;20118;-82
2021/10/20 03:29:31;;;;;;;5.35;2.08;;;20.50;54.60;;;;;;4966888;28;20182;-83
2021/10/20 03:31:57;;;;;;;5.35;2.28;;;20.50;54.60;;;;;;4971681;28;20047;-82
2021/10/20 03:34:22;;;;;;;5.30;2.33;;;20.50;54.60;;;;;;4973945;28;20405;-83
2021/10/20 03:36:48;;;;;;;7.43;2.28;;;20.50;54.50;;;;;;4964091;28;20070;-83
2021/10/20 03:39:14;;;;;;;5.72;2.13;;;20.50;54.50;;;;;;4976819;28;20038;-82
2021/10/20 03:41:39;;;;;;;6.78;2.10;;;20.40;54.30;;;;;;4975866;28;20644;-83
2021/10/20 03:44:05;;;;;;;5.93;2.28;;;20.50;54.50;;;;;;4958668;28;20035;-83
2021/10/20 03:46:31;;;;;;;5.20;1.92;;;20.50;54.50;;;;;;4974057;28;20042;-82
2021/10/20 03:48:56;;;;;;;5.82;2.40;;;20.50;54.50;;;;;;4975656;28;20173;-83
2021/10/20 03:51:22;;;;;;;5.25;2.40;;;20.40;54.30;;;;;;4966682;28;20059;-82
2021/10/20 03:53:47;;;;;;;5.85;2.20;;;20.40;54.30;;;;;;4971598;28;20051;-82
2021/10/20 03:56:13;;;;;;;5.43;1.92;;;20.50;54.50;;;;;;4975187;28;20093;-82
2021/10/20 03:58:39;;;;;;;5.57;2.35;;;20.40;54.30;;;;;;4972154;28;20086;-83
2021/10/20 04:01:05;;;;;;;5.07;1.90;;;20.50;54.50;;;;;;4955438;28;20050;-82
2021/10/20 04:03:30;;;;;;;5.68;2.15;;;20.50;54.50;;;;;;4963760;28;20047;-82
2021/10/20 04:05:56;;;;;;;6.00;2.25;;;20.40;54.30;;;;;;4967597;28;20031;-83
2021/10/20 04:08:22;;;;;;;4.72;2.00;;;20.50;54.40;;;;;;4970599;28;20047;-83
2021/10/20 04:10:47;;;;;;;5.65;2.20;;;20.50;54.40;;;;;;4966960;28;20126;-83
2021/10/20 04:13:13;;;;;;;6.07;2.25;;;20.50;54.40;;;;;;4959149;28;20070;-83
2021/10/20 04:15:38;;;;;;;5.50;2.53;;;20.50;54.40;;;;;;4967643;28;20066;-82
2021/10/20 04:18:04;;;;;;;5.55;2.20;;;20.40;54.20;;;;;;4972140;28;20047;-83
2021/10/20 04:20:30;;;;;;;5.60;2.17;;;20.50;54.30;;;;;;4967542;28;20043;-83
2021/10/20 04:22:56;;;;;;;5.57;2.28;;;20.50;54.30;;;;;;4968460;28;20041;-84
2021/10/20 04:25:22;;;;;;;5.00;2.38;;;20.50;54.30;;;;;;4955924;28;20031;-82
2021/10/20 04:27:51;;;;;;;5.32;1.98;;;20.50;54.40;;;;;;4971990;28;20050;-83
2021/10/20 04:30:19;;;;;;;5.00;2.10;;;20.40;54.10;;;;;;4966931;28;20031;-83
2021/10/20 04:32:45;;;;;;;5.68;2.40;;;20.50;54.30;;;;;;4971418;28;20038;-83
2021/10/20 04:35:11;;;;;;;4.57;1.92;;;20.50;54.20;;;;;;4973850;28;20031;-83
2021/10/20 04:37:40;;;;;;;5.78;2.13;;;20.50;54.20;;;;;;4965861;28;20446;-83
2021/10/20 04:40:08;;;;;;;5.63;2.40;;;20.50;54.20;;;;;;4970329;28;20102;-83
2021/10/20 04:42:34;;;;;;;4.75;2.10;;;20.50;54.20;;;;;;4986247;28;20493;-82
2021/10/20 04:45:00;;;;;;;4.85;2.28;;;20.40;54.00;;;;;;4966435;28;20044;-83
2021/10/20 04:47:26;;;;;;;5.35;2.00;;;20.50;54.20;;;;;;4983224;28;20126;-83
2021/10/20 04:49:52;;;;;;;6.00;2.13;;;20.40;54.00;;;;;;4976918;28;20049;-82
2021/10/20 04:52:22;;;;;;;5.93;2.15;;;20.50;54.20;;;;;;4973938;28;20126;-82
2021/10/20 04:54:51;;;;;;;6.78;2.50;;;20.40;54.00;;;;;;4958039;28;20583;-83
2021/10/20 04:57:17;;;;;;;6.05;2.72;;;20.50;54.10;;;;;;4969813;28;20039;-84
2021/10/20 04:59:43;;;;;;;4.50;1.95;;;20.50;54.10;;;;;;4967536;28;20047;-82
2021/10/20 05:02:09;;;;;;;6.85;2.30;;;20.40;53.90;;;;;;4967953;28;20111;-83
2021/10/20 05:04:34;;;;;;;6.05;2.20;;;20.40;53.90;;;;;;4967021;28;20154;-83
2021/10/20 05:07:00;;;;;;;4.70;1.92;;;20.50;54.10;;;;;;4975864;28;20049;-82
2021/10/20 05:09:26;;;;;;;7.75;2.58;;;20.50;54.10;;;;;;4970590;28;20042;-84
2021/10/20 05:11:52;;;;;;;4.53;1.90;;;20.50;54.10;;;;;;4967284;28;20074;-84
2021/10/20 05:14:18;;;;;;;5.38;2.30;;;20.50;54.10;;;;;;4974964;28;20042;-83
2021/10/20 05:16:43;;;;;;;4.78;2.00;;;20.50;54.00;;;;;;4979045;28;20033;-83
2021/10/20 05:19:09;;;;;;;5.22;2.22;;;20.50;54.10;;;;;;4966735;28;20576;-83
2021/10/20 05:21:35;;;;;;;4.90;2.20;;;20.50;54.00;;;;;;4970677;28;20117;-82
2021/10/20 05:24:00;;;;;;;4.50;1.90;;;20.50;54.00;;;;;;4969545;28;20034;-83
2021/10/20 05:26:26;;;;;;;6.25;2.20;;;20.50;54.00;;;;;;4970899;28;20086;-84
2021/10/20 05:28:52;;;;;;;7.05;2.05;;;20.40;53.80;;;;;;4968835;28;20031;-83
2021/10/20 05:31:18;;;;;;;6.68;2.10;;;20.40;53.80;;;;;;4963299;28;20375;-82
2021/10/20 05:33:43;;;;;;;7.65;2.10;;;20.50;54.20;;;;;;4969714;28;20418;-81
2021/10/20 05:36:09;;;;;;;8.13;2.00;;;20.50;54.40;;;;;;4964145;28;20401;-82
2021/10/20 05:38:36;;;;;;;6.47;2.08;;;20.50;54.40;;;;;;4968342;28;20145;-82
2021/10/20 05:41:02;;;;;;;9.52;2.10;;;20.40;54.20;;;;;;4966867;28;20043;-81
2021/10/20 05:43:27;;;;;;;8.27;1.85;;;20.50;54.40;;;;;;4951426;28;20638;-81
2021/10/20 05:45:53;;;;;;;9.88;2.15;;;20.40;54.30;;;;;;4970421;28;20046;-83
2021/10/20 05:48:22;;;;;;;9.65;2.53;;;20.50;54.50;;;;;;4962856;28;20069;-82
2021/10/20 05:50:52;;;;;;;6.35;2.10;;;20.50;54.40;;;;;;4965575;28;20065;-82
2021/10/20 05:53:18;;;;;;;11.50;2.38;;;20.50;54.40;;;;;;4966558;28;20054;-81
2021/10/20 05:55:44;;;;;;;6.50;2.20;;;20.50;54.30;;;;;;4964348;28;20030;-82
2021/10/20 05:58:10;;;;;;;5.68;1.95;;;20.50;54.20;;;;;;4963758;28;20039;-82
2021/10/20 06:00:36;;;;;;;6.75;2.17;;;20.40;54.00;;;;;;4966870;28;20175;-81
2021/10/20 06:03:03;;;;;;;11.05;2.05;;;20.40;54.60;;;;;;4964306;28;20132;-82
2021/10/20 06:05:29;;;;;;;8.02;1.98;;;20.50;54.10;;;;;;4956534;28;20159;-82
2021/10/20 06:07:54;;;;;;;8.40;1.90;;;20.50;54.10;;;;;;4966542;28;20097;-82
2021/10/20 06:10:22;;;;;;;4.97;1.90;;;20.50;54.10;;;;;;4960250;28;20039;-82
2021/10/20 06:12:48;;;;;;;6.57;2.30;;;20.50;54.10;;;;;;4961196;28;20085;-83
2021/10/20 06:15:15;;;;;;;5.75;2.05;;;20.50;54.30;;;;;;4967207;28;20039;-83
2021/10/20 06:17:41;;;;;;;5.93;2.05;;;20.40;54.10;;;;;;4961761;28;20139;-81
2021/10/20 06:20:07;;;;;;;8.93;2.10;;;20.40;54.00;;;;;;4971805;28;20067;-81
2021/10/20 06:22:33;;;;;;;5.78;2.03;;;20.50;54.20;;;;;;4966442;28;20046;-82
2021/10/20 06:24:59;;;;;;;5.30;2.20;;;20.50;54.10;;;;;;4963715;28;20065;-84
2021/10/20 06:27:25;;;;;;;5.20;2.00;;;20.50;54.10;;;;;;4962408;28;20031;-84
2021/10/20 06:29:52;;;;;;;4.53;1.88;;;20.40;53.90;;;;;;4971272;28;20042;-83
2021/10/20 06:32:18;;;;;;;5.45;2.08;;;20.40;53.80;;;;;;4968457;28;20773;-82
2021/10/20 06:34:43;;;;;;;8.63;2.28;;;20.50;54.00;;;;;;4970536;28;20126;-81
2021/10/20 06:37:09;;;;;;;6.00;1.95;;;20.50;54.00;;;;;;4966584;28;20113;-82
2021/10/20 06:39:35;;;;;;;5.65;1.88;;;20.40;53.80;;;;;;4961706;28;20109;-81
2021/10/20 06:42:01;;;;;;;5.32;1.80;;;20.40;53.90;;;;;;4965780;28;20040;-82
2021/10/20 06:44:27;;;;;;;5.00;1.90;;;20.50;54.10;;;;;;4957065;28;20046;-85
2021/10/20 06:46:53;;;;;;;5.32;2.10;;;20.50;54.10;;;;;;4959968;28;20049;-87
2021/10/20 06:49:19;;;;;;;5.30;2.00;;;20.40;53.90;;;;;;4956350;28;20493;-83
2021/10/20 06:51:45;;;;;;;7.68;1.98;;;20.40;53.90;;;;;;4962843;28;20043;-82
2021/10/20 06:54:17;;;;;;;6.45;2.15;;;20.40;53.90;;;;;;4948959;28;20032;-85
2021/10/20 06:56:44;;;;;;;6.15;2.33;;;20.40;53.80;;;;;;4967273;28;20039;-80
2021/10/20 06:59:10;;;;;;;7.95;2.20;;;20.50;54.00;;;;;;4962350;28;20039;-83
2021/10/20 07:01:36;;;;;;;6.03;2.03;;;20.40;53.80;;;;;;4950626;28;20676;-82
2021/10/20 07:04:01;;;;;;;5.70;2.03;;;20.40;53.80;;;;;;4966119;28;20054;-82
2021/10/20 07:06:28;;;;;;;6.15;1.98;;;20.50;53.90;;;;;;4969479;28;20035;-86
2021/10/20 07:08:55;;;;;;;6.82;2.38;;;20.40;53.70;;;;;;4963507;28;20030;-84
2021/10/20 07:11:22;;;;;;;6.13;2.17;;;20.40;53.70;;;;;;4971263;28;20711;-83
2021/10/20 07:13:49;;;;;;;5.47;2.20;;;20.40;53.70;;;;;;4961846;28;20091;-84
2021/10/20 07:16:15;;;;;;;7.72;2.63;;;20.40;53.70;;;;;;4959863;28;20039;-83
2021/10/20 07:18:41;;;;;;;8.63;3.25;;;20.40;54.00;;;;;;4963208;28;20512;-83
2021/10/20 07:21:07;;;;;;;10.32;3.47;;;20.40;53.90;;;;;;4950771;28;20077;-83
2021/10/20 07:23:33;;;;;;;8.63;3.50;;;20.30;53.50;;;;;;4959679;28;20617;-83
2021/10/20 07:25:58;;;;;;;9.25;4.05;;;20.30;53.50;;;;;;4960453;28;20047;-83
2021/10/20 07:28:24;;;;;;;11.18;3.80;;;20.30;53.40;;;;;;4964758;28;20046;-83
2021/10/20 07:30:50;;;;;;;9.60;3.53;;;20.20;53.40;;;;;;4962371;28;20042;-82
2021/10/20 07:33:16;;;;;;;10.40;3.42;;;20.20;53.60;;;;;;4962888;28;20045;-83
2021/10/20 07:35:41;;;;;;;13.55;3.30;;;20.20;53.60;;;;;;4962870;28;20138;-83
2021/10/20 07:38:07;;;;;;;11.70;3.38;;;20.30;53.90;;;;;;4955786;28;20043;-82
2021/10/20 07:40:33;;;;;;;12.18;2.95;;;20.30;54.60;;;;;;4965243;28;20408;-82
2021/10/20 07:42:58;;;;;;;10.27;3.38;;;20.30;54.20;;;;;;4969134;28;20465;-82
2021/10/20 07:45:25;;;;;;;13.23;2.90;;;20.30;54.10;;;;;;4966147;28;20038;-81
2021/10/20 07:47:51;;;;;;;11.18;3.10;;;20.30;54.10;;;;;;4964553;28;20042;-82
2021/10/20 07:50:18;;;;;;;11.07;3.03;;;20.30;54.00;;;;;;4966298;28;20031;-82
2021/10/20 07:52:48;;;;;;;5.72;2.30;;;20.30;54.00;;;;;;4968856;28;20131;-82
2021/10/20 07:55:15;;;;;;;8.38;3.33;;;20.30;53.90;;;;;;4964036;28;20084;-83
2021/10/20 07:57:41;;;;;;;9.73;2.83;;;20.40;54.10;;;;;;4962204;28;20034;-81
2021/10/20 08:00:08;;;;;;;9.75;2.72;;;20.40;54.00;;;;;;4964568;28;20046;-81
2021/10/20 08:02:34;;;;;;;7.20;2.70;;;20.30;53.80;;;;;;4967031;28;20031;-82
2021/10/20 08:05:00;;;;;;;9.55;3.10;;;20.40;53.90;;;;;;4968128;28;20049;-83
2021/10/20 08:07:26;;;;;;;7.07;2.80;;;20.40;53.90;;;;;;4968015;28;20240;-84
2021/10/20 08:09:52;;;;;;;6.57;2.72;;;20.40;53.90;;;;;;4968757;28;20046;-83
2021/10/20 08:12:19;;;;;;;8.50;2.80;;;20.40;53.90;;;;;;4970648;28;20043;-83
2021/10/20 08:14:46;;;;;;;7.68;2.70;;;20.40;53.90;;;;;;4972556;28;20038;-82
2021/10/20 08:17:12;;;;;;;8.15;2.58;;;20.40;53.90;;;;;;4965133;28;20042;-83
2021/10/20 08:19:39;;;;;;;6.10;2.67;;;20.40;53.90;;;;;;4968659;28;20038;-83
2021/10/20 08:22:05;;;;;;;6.03;2.25;;;20.40;53.80;;;;;;4962655;28;20055;-83
2021/10/20 08:24:31;;;;;;;6.32;2.40;;;20.40;53.80;;;;;;4967113;28;20058;-82
2021/10/20 08:26:57;;;;;;;5.55;2.20;;;20.40;53.80;;;;;;4974890;28;20047;-82
2021/10/20 08:29:23;;;;;;;6.15;2.60;;;20.40;53.80;;;;;;4965767;28;20039;-82
2021/10/20 08:31:49;;;;;;;5.53;2.25;;;20.40;53.80;;;;;;4967209;28;20120;-82
2021/10/20 08:34:14;;;;;;;8.18;2.40;;;20.40;53.80;;;;;;4959615;28;20031;-82
2021/10/20 08:36:40;;;;;;;6.25;2.38;;;20.40;53.80;;;;;;4971736;28;20130;-82
2021/10/20 08:39:06;;;;;;;6.18;2.53;;;20.40;53.80;;;;;;4954715;28;20046;-83
2021/10/20 08:41:32;;;;;;;7.95;2.10;;;20.40;54.00;;;;;;4962870;28;20049;-83
2021/10/20 08:43:59;;;;;;;7.03;2.38;;;20.40;54.00;;;;;;4963108;28;20039;-83
2021/10/20 08:46:28;;;;;;;20.10;2.95;;;20.40;54.20;;;;;;4962018;28;20105;-82
2021/10/20 08:48:54;;;;;;;13.38;3.25;;;20.40;54.30;;;;;;4961807;28;20034;-83
2021/10/20 08:51:22;;;;;;;14.35;2.80;;;20.40;54.10;;;;;;4966161;28;20054;-83
2021/10/20 08:53:49;;;;;;;20.67;3.53;;;20.40;54.10;;;;;;4977216;28;20035;-81
2021/10/20 08:56:17;;;;;;;17.50;3.25;;;20.40;54.10;;;;;;4962798;28;20035;-83
2021/10/20 08:58:43;;;;;;;23.63;3.80;;;20.40;54.00;;;;;;4965686;28;20174;-80
2021/10/20 09:01:09;;;;;;;16.38;3.60;;;20.40;54.00;;;;;;4965849;28;20286;-80
2021/10/20 09:03:35;;;;;;;16.65;3.00;;;20.40;54.00;;;;;;4967853;28;20595;-79
2021/10/20 09:06:00;;;;;;;19.45;3.85;;;20.30;53.70;;;;;;4963825;28;20432;-79
2021/10/20 09:08:26;;;;;;;39.13;5.40;;;20.40;53.90;;;;;;4963701;28;20481;-87
2021/10/20 09:10:52;;;;;;;110.07;10.15;;;20.30;53.90;;;;;;4963060;28;20117;-83
2021/10/20 09:13:18;;;;;;;66.93;8.52;;;20.40;54.10;;;;;;4963007;28;20094;-85
2021/10/20 09:15:44;;;;;;;51.97;6.90;;;20.40;54.10;;;;;;4967382;28;20039;-83
2021/10/20 09:18:12;;;;;;;40.00;5.55;;;20.40;54.00;;;;;;4967053;28;20043;-83
2021/10/20 09:20:43;;;;;;;41.05;5.38;;;20.40;54.10;;;;;;4960533;28;20051;-82
2021/10/20 09:23:21;;;;;;;36.85;5.47;;;20.40;54.00;;;;;;4964532;28;20039;-83
2021/10/20 09:25:52;;;;;;;34.42;4.80;;;20.40;54.00;;;;;;4961468;28;20113;-84
2021/10/20 09:28:38;;;;;;;23.38;4.30;;;20.40;54.00;;;;;;4961256;28;20050;-83
2021/10/20 09:31:05;;;;;;;;;;;20.40;53.90;;;;;;4967381;28;20510;-83
2021/10/20 09:33:32;;;;;;;36.20;4.97;;;20.40;53.90;;;;;;4965122;28;19915;-85
2021/10/20 09:36:10;;;;;;;23.77;4.18;;;20.40;53.90;;;;;;4971422;28;20706;-83
2021/10/20 09:38:40;;;;;;;26.50;4.50;;;20.40;53.90;;;;;;4964330;28;20042;-83
2021/10/20 09:41:08;;;;;;;16.60;3.97;;;20.40;53.90;;;;;;4970375;28;20074;-83
2021/10/20 09:43:41;;;;;;;18.10;3.88;;;20.40;54.00;;;;;;4959467;28;20074;-83
2021/10/20 09:46:07;;;;;;;23.95;4.13;;;20.40;53.90;;;;;;4941054;28;20126;-84
2021/10/20 09:48:40;;;;;;;15.20;3.53;;;20.40;53.90;;;;;;4961681;28;20498;-84
2021/10/20 09:51:13;;;;;;;21.52;3.75;;;20.40;53.90;;;;;;4954506;28;20143;-83
2021/10/20 09:53:44;;;;;;;12.73;3.63;;;20.40;53.90;;;;;;4965521;28;20043;-83
2021/10/20 09:56:25;;;;;;;12.40;3.55;;;20.40;54.50;;;;;;4980139;28;20078;-84
2021/10/20 09:58:52;;;;;;;17.33;3.22;;;20.40;53.80;;;;;;4950785;28;20042;-83
2021/10/20 10:01:24;;;;;;;15.68;3.50;;;20.40;53.90;;;;;;4965841;28;20134;-86
2021/10/20 10:03:50;;;;;;;11.93;3.38;;;20.40;54.20;;;;;;4951738;28;20039;-83
2021/10/20 10:06:17;;;;;;;13.18;3.10;;;20.40;55.30;;;;;;4962561;28;20048;-84
2021/10/20 10:08:44;;;;;;;12.57;2.88;;;20.40;55.60;;;;;;4964579;28;20465;-80
2021/10/20 10:11:10;;;;;;;14.02;3.25;;;20.40;55.60;;;;;;4962375;28;20698;-83
2021/10/20 10:13:47;;;;;;;15.27;2.80;;;20.40;55.40;;;;;;4963628;28;20075;-84
2021/10/20 10:16:15;;;;;;;14.98;2.97;;;20.50;55.50;;;;;;4958342;28;20081;-83
2021/10/20 10:18:41;;;;;;;15.63;3.10;;;20.50;55.50;;;;;;4937683;28;20043;-85
2021/10/20 10:21:37;;;;;;;16.77;3.33;;;20.50;55.40;;;;;;4965193;28;20051;-82
2021/10/20 10:24:08;;;;;;;14.48;2.85;;;20.50;55.60;;;;;;4943288;28;20103;-80
2021/10/20 10:26:36;;;;;;;14.75;2.65;;;20.40;55.50;;;;;;4965648;28;20409;-84
2021/10/20 10:29:11;;;;;;;15.65;3.20;;;20.50;55.40;;;;;;4963752;28;20093;-84
2021/10/20 10:31:42;;;;;;;13.60;3.03;;;20.50;55.40;;;;;;4968572;28;20071;-83
2021/10/20 10:34:28;;;;;;;10.90;2.80;;;20.50;54.80;;;;;;4961838;28;20104;-83
2021/10/20 10:36:59;;;;;;;9.70;2.95;;;20.50;54.90;;;;;;4972012;28;20066;-82
2021/10/20 10:39:33;;;;;;;11.52;2.78;;;20.50;54.80;;;;;;4975777;28;20073;-82
2021/10/20 10:42:05;;;;;;;10.82;3.00;;;20.40;54.60;;;;;;4968448;28;20800;-82
2021/10/20 10:44:51;;;;;;;14.27;2.80;;;20.40;54.40;;;;;;4962383;28;20062;-82
2021/10/20 10:47:25;;;;;;;10.95;2.92;;;20.40;54.50;;;;;;4938903;28;20046;-83
2021/10/20 10:49:53;;;;;;;11.77;2.92;;;20.40;54.60;;;;;;4953534;28;20074;-81
2021/10/20 10:52:34;;;;;;;8.95;3.00;;;20.50;54.80;;;;;;4955121;28;20067;-80
2021/10/20 10:55:14;;;;;;;9.02;2.88;;;20.50;54.80;;;;;;4967647;28;20111;-81
2021/10/20 10:57:43;;;;;;;8.65;2.75;;;20.50;54.80;;;;;;4962826;28;20076;-80
2021/10/20 11:00:17;;;;;;;10.43;2.75;;;20.50;54.70;;;;;;4966254;28;20039;-79
2021/10/20 11:02:51;;;;;;;10.55;2.47;;;20.40;54.50;;;;;;4965083;28;20079;-81
2021/10/20 11:05:20;;;;;;;8.95;2.63;;;20.40;54.50;;;;;;4983040;28;20496;-80
2021/10/20 11:07:47;;;;;;;7.93;2.40;;;20.40;54.50;;;;;;4969490;28;20038;-80
2021/10/20 11:10:15;;;;;;;11.18;2.47;;;20.50;54.50;;;;;;4968408;28;20039;-79
2021/10/20 11:12:48;;;;;;;10.43;2.78;;;20.50;54.50;;;;;;4966927;28;20053;-81
2021/10/20 11:15:16;;;;;;;9.15;2.55;;;20.40;54.40;;;;;;4967511;28;20172;-81
2021/10/20 11:17:42;;;;;;;7.80;2.38;;;20.50;54.50;;;;;;4965718;28;20049;-81
2021/10/20 11:20:10;;;;;;;6.35;2.05;;;20.50;54.50;;;;;;4968466;28;20154;-81
2021/10/20 11:22:37;;;;;;;13.68;2.60;;;20.40;54.30;;;;;;4962803;28;20126;-81
2021/10/20 11:25:07;;;;;;;7.47;2.45;;;20.50;54.80;;;;;;4949093;28;20039;-81
2021/10/20 11:27:34;;;;;;;10.35;2.80;;;20.50;56.00;;;;;;4967417;28;20035;-81
2021/10/20 11:30:00;;;;;;;11.20;2.88;;;20.50;56.00;;;;;;4962924;28;20069;-81
2021/10/20 11:32:28;;;;;;;8.80;2.45;;;20.50;56.40;;;;;;4964403;28;20107;-80
2021/10/20 11:34:58;;;;;;;8.18;2.60;;;20.50;56.30;;;;;;4974892;28;20043;-82
2021/10/20 11:37:25;;;;;;;8.00;2.53;;;20.50;56.20;;;;;;4958068;28;20054;-82
2021/10/20 11:39:57;;;;;;;10.38;3.05;;;20.50;56.60;;;;;;4974379;28;20417;-82
2021/10/20 11:42:24;;;;;;;9.07;2.47;;;20.60;56.70;;;;;;4963029;28;20042;-82
2021/10/20 11:44:51;;;;;;;19.02;2.50;;;20.50;56.70;;;;;;4963912;28;20046;-83
2021/10/20 11:47:18;;;;;;;12.82;2.88;;;20.50;55.70;;;;;;4944640;28;20493;-83
2021/10/20 11:49:46;;;;;;;15.80;2.97;;;20.50;55.30;;;;;;4956400;28;20031;-84
2021/10/20 11:52:14;;;;;;;10.93;2.97;;;20.50;55.10;;;;;;4951612;28;20039;-84
2021/10/20 11:54:40;;;;;;;13.55;3.13;;;20.50;55.10;;;;;;4946898;28;20031;-84
2021/10/20 11:57:09;;;;;;;12.18;2.85;;;20.50;55.20;;;;;;4966398;28;20043;-83
2021/10/20 11:59:35;;;;;;;9.32;2.90;;;20.50;55.20;;;;;;4964690;28;20031;-84
2021/10/20 12:02:01;;;;;;;13.80;2.53;;;20.50;55.10;;;;;;4962326;28;20051;-84
2021/10/20 12:04:29;;;;;;;10.82;2.40;;;20.50;55.10;;;;;;4962193;28;20031;-83
2021/10/20 12:06:57;;;;;;;8.30;2.33;;;20.50;55.00;;;;;;4967867;28;20058;-84
2021/10/20 12:09:25;;;;;;;10.13;2.75;;;20.50;55.00;;;;;;4962162;28;20494;-83
2021/10/20 12:11:58;;;;;;;8.35;2.28;;;20.50;55.10;;;;;;4958400;28;20031;-83
2021/10/20 12:14:38;;;;;;;7.53;2.70;;;20.50;55.00;;;;;;4963948;28;20462;-84
2021/10/20 12:17:06;;;;;;;9.65;2.40;;;20.40;54.90;;;;;;4972854;28;20042;-83
2021/10/20 12:19:37;;;;;;;6.88;2.60;;;20.40;54.80;;;;;;4957256;28;20043;-83
2021/10/20 12:22:15;;;;;;;8.73;3.03;;;20.50;55.00;;;;;;4957034;28;20080;-81
2021/10/20 12:24:45;;;;;;;13.35;2.90;;;20.40;55.00;;;;;;4957355;28;20460;-82
2021/10/20 12:27:11;;;;;;;10.98;2.67;;;20.40;55.40;;;;;;4957155;28;20095;-82
2021/10/20 12:29:43;;;;;;;11.85;2.40;;;20.40;55.30;;;;;;4968364;28;20093;-82
2021/10/20 12:32:24;;;;;;;10.68;2.75;;;20.50;55.50;;;;;;4959180;28;20027;-82
2021/10/20 12:34:54;;;;;;;9.13;2.55;;;20.40;55.10;;;;;;4957765;28;20046;-82
2021/10/20 12:37:34;;;;;;;23.55;3.67;;;20.40;55.00;;;;;;4958961;28;20051;-82
2021/10/20 12:40:11;;;;;;;20.92;3.22;;;20.40;55.20;;;;;;4961585;28;20048;-82
2021/10/20 12:42:57;;;;;;;15.90;2.70;;;20.40;55.30;;;;;;4942396;28;20043;-82
2021/10/20 12:45:25;;;;;;;23.45;2.88;;;20.50;55.60;;;;;;4959048;28;20070;-80